Arvonia, Virginia
Current Conditions -  °F | °C
As of 1:55 PM on Friday 21 Nov 2014 (Local Time) from KFVX Reporting Station
Clear Clear  
Wind Chill:   Ceiling: Unl
Heat Index:   Visibility: 10mi
Dew Point: -13°   Wind: 3mph
Humidity: 20%   Direction: 310°NW
Pressure: 30.43"   Gusts: NA
Location:  37.68°N, 78.34°W
Report Text: KFVX 211855Z AUTO 31003KT 10SM CLR 09/M13 A3043 RMK AO2 T00921131
Loading
Personal Weather Stations






























Interactive Weather Map New forecast layout! Learn more

10-Day Weather Forecast

Advertisements
Track Severe Weather on mobile